Time;durP1;ratioP1;P1;durP2;ratioP2;P2;SDS_P1;SDS_P2;PMS_P1;PMS_P2;Temp;Humidity;BMP_temperature;BMP_pressure;BME280_temperature;BME280_humidity;BME280_pressure;Samples;Min_cycle;Max_cycle;Signal;HPM_P1;HPM_P2
2022/08/27 00:01:52;;;;;;;1.93;1.17;;;;;;;;;;5112714;28;20104;-68
2022/08/27 00:04:19;;;;;;;2.63;0.97;;;;;;;;;;5097650;28;20024;-68
2022/08/27 00:06:46;;;;;;;1.60;0.93;;;;;;;;;;5086568;28;20048;-68
2022/08/27 00:09:13;;;;;;;0.70;0.67;;;;;;;;;;5102054;28;20122;-68
2022/08/27 00:11:39;;;;;;;2.70;1.73;;;;;;;;;;5107284;28;20046;-68
2022/08/27 00:14:06;;;;;;;1.87;1.30;;;;;;;;;;5096384;28;20092;-68
2022/08/27 00:16:33;;;;;;;2.00;1.23;;;;;;;;;;5094530;28;20028;-68
2022/08/27 00:18:59;;;;;;;3.17;1.37;;;;;;;;;;5092256;28;20077;-67
2022/08/27 00:21:26;;;;;;;1.77;1.33;;;;;;;;;;5092078;28;20024;-67
2022/08/27 00:23:53;;;;;;;1.50;1.03;;;;;;;;;;5092296;28;20386;-67
2022/08/27 00:26:20;;;;;;;1.30;0.73;;;;;;;;;;5091564;28;20112;-67
2022/08/27 00:28:46;;;;;;;2.93;1.50;;;;;;;;;;5086773;28;20039;-67
2022/08/27 00:31:13;;;;;;;2.33;1.50;;;;;;;;;;5086989;28;20114;-67
2022/08/27 00:33:40;;;;;;;3.90;1.60;;;;;;;;;;5103953;28;20035;-67
2022/08/27 00:36:07;;;;;;;1.47;1.00;;;;;;;;;;5091242;28;20108;-68
2022/08/27 00:38:34;;;;;;;2.00;1.13;;;;;;;;;;5101989;28;20024;-67
2022/08/27 00:41:01;;;;;;;4.00;1.93;;;;;;;;;;5092041;28;20048;-68
2022/08/27 00:43:32;;;;;;;2.03;1.50;;;;;;;;;;5095949;28;20518;-68
2022/08/27 00:46:06;;;;;;;2.23;1.67;;;;;;;;;;5091404;28;20047;-68
2022/08/27 00:48:35;;;;;;;3.67;2.57;;;;;;;;;;5091765;28;20074;-68
2022/08/27 00:51:02;;;;;;;5.63;1.63;;;;;;;;;;5086891;28;20557;-68
2022/08/27 00:53:32;;;;;;;2.53;1.73;;;;;;;;;;5092911;28;20063;-67
2022/08/27 00:55:58;;;;;;;4.20;2.03;;;;;;;;;;5105841;28;20023;-68
2022/08/27 00:58:25;;;;;;;3.37;1.77;;;;;;;;;;5090215;28;20054;-67
2022/08/27 01:00:52;;;;;;;4.27;2.57;;;;;;;;;;5087615;28;20457;-67
2022/08/27 01:03:18;;;;;;;3.00;2.20;;;;;;;;;;5090174;28;20016;-67
2022/08/27 01:05:46;;;;;;;5.90;2.50;;;;;;;;;;5098379;28;20086;-67
2022/08/27 01:08:16;;;;;;;1.43;1.10;;;;;;;;;;5095042;28;20119;-67
2022/08/27 01:10:43;;;;;;;0.93;0.77;;;;;;;;;;5088470;28;20055;-67
2022/08/27 01:13:11;;;;;;;2.93;1.10;;;;;;;;;;5086804;28;20023;-67
2022/08/27 01:15:39;;;;;;;1.13;0.73;;;;;;;;;;5087484;28;20020;-67
2022/08/27 01:18:07;;;;;;;1.90;1.10;;;;;;;;;;5100279;28;20020;-67
2022/08/27 01:21:03;;;;;;;1.50;0.87;;;;;;;;;;5099830;28;20080;-67
2022/08/27 01:23:52;;;;;;;1.60;1.00;;;;;;;;;;5068849;28;20106;-67
2022/08/27 01:26:19;;;;;;;1.07;0.97;;;;;;;;;;5096968;28;20036;-70
2022/08/27 01:28:47;;;;;;;2.87;1.13;;;;;;;;;;5100049;28;20101;-68
2022/08/27 01:31:13;;;;;;;3.67;1.30;;;;;;;;;;5094480;28;20028;-68
2022/08/27 01:33:40;;;;;;;2.03;1.10;;;;;;;;;;5094441;28;20099;-67
2022/08/27 01:36:07;;;;;;;1.47;1.23;;;;;;;;;;5088632;28;20081;-68
2022/08/27 01:38:34;;;;;;;6.80;1.00;;;;;;;;;;5088334;28;20020;-68
2022/08/27 01:41:01;;;;;;;1.03;0.73;;;;;;;;;;5088639;28;20066;-68
2022/08/27 01:43:28;;;;;;;2.57;1.50;;;;;;;;;;5088895;28;20020;-67
2022/08/27 01:45:54;;;;;;;2.97;1.60;;;;;;;;;;5096526;28;20036;-67
2022/08/27 01:48:22;;;;;;;1.90;1.30;;;;;;;;;;5099883;28;20063;-68
2022/08/27 01:50:49;;;;;;;10.70;2.20;;;;;;;;;;5111402;28;20028;-68
2022/08/27 01:53:19;;;;;;;2.20;1.50;;;;;;;;;;5103311;28;20020;-68
2022/08/27 01:55:46;;;;;;;8.00;1.47;;;;;;;;;;5096895;28;20020;-67
2022/08/27 01:58:14;;;;;;;1.63;1.23;;;;;;;;;;5097138;28;20492;-68
2022/08/27 02:00:42;;;;;;;1.47;1.10;;;;;;;;;;5094589;28;20080;-67
2022/08/27 02:03:10;;;;;;;2.03;1.53;;;;;;;;;;5090118;28;20028;-67
2022/08/27 02:05:38;;;;;;;4.43;2.53;;;;;;;;;;5089013;28;20023;-68
2022/08/27 02:08:05;;;;;;;2.27;1.70;;;;;;;;;;5092481;28;20417;-67
2022/08/27 02:10:33;;;;;;;1.50;1.20;;;;;;;;;;5094112;28;20475;-67
2022/08/27 02:13:00;;;;;;;1.67;1.10;;;;;;;;;;5105541;28;20485;-67
2022/08/27 02:15:27;;;;;;;1.77;1.47;;;;;;;;;;5114492;28;20028;-67
2022/08/27 02:17:54;;;;;;;2.40;1.83;;;;;;;;;;5114437;28;20047;-67
2022/08/27 02:20:21;;;;;;;1.53;1.17;;;;;;;;;;5091605;28;20062;-67
2022/08/27 02:22:48;;;;;;;3.23;2.37;;;;;;;;;;5093133;28;20026;-67
2022/08/27 02:25:15;;;;;;;2.57;1.73;;;;;;;;;;5101010;28;20024;-68
2022/08/27 02:27:43;;;;;;;1.80;1.43;;;;;;;;;;5098789;28;20378;-67
2022/08/27 02:30:11;;;;;;;1.67;1.33;;;;;;;;;;5111846;28;20066;-67
2022/08/27 02:32:38;;;;;;;4.33;2.37;;;;;;;;;;5107464;28;20027;-67
2022/08/27 02:35:05;;;;;;;2.13;1.53;;;;;;;;;;5105670;28;20035;-67
2022/08/27 02:37:32;;;;;;;4.70;2.57;;;;;;;;;;5093616;28;20394;-67
2022/08/27 02:40:00;;;;;;;2.93;2.13;;;;;;;;;;5094966;28;20150;-67
2022/08/27 02:42:27;;;;;;;3.60;2.43;;;;;;;;;;5089924;28;20032;-67
2022/08/27 02:44:53;;;;;;;3.07;2.20;;;;;;;;;;5088311;28;20020;-67
2022/08/27 02:47:20;;;;;;;4.33;2.63;;;;;;;;;;5087742;28;20530;-67
2022/08/27 02:49:47;;;;;;;3.63;2.53;;;;;;;;;;5091982;28;20023;-67
2022/08/27 02:52:13;;;;;;;3.50;2.30;;;;;;;;;;5090955;28;20571;-67
2022/08/27 02:54:40;;;;;;;2.40;1.80;;;;;;;;;;5106754;28;20027;-67
2022/08/27 02:57:07;;;;;;;2.03;1.40;;;;;;;;;;5093340;28;20536;-67
2022/08/27 02:59:33;;;;;;;2.07;1.80;;;;;;;;;;5093128;28;20035;-67
2022/08/27 03:02:00;;;;;;;8.17;1.93;;;;;;;;;;5107550;28;20015;-68
2022/08/27 03:04:28;;;;;;;2.40;1.87;;;;;;;;;;5101942;28;20036;-68
2022/08/27 03:06:55;;;;;;;9.00;2.47;;;;;;;;;;5095702;28;20036;-67
2022/08/27 03:09:21;;;;;;;3.77;1.77;;;;;;;;;;5088413;28;20026;-67
2022/08/27 03:11:48;;;;;;;3.40;2.20;;;;;;;;;;5088350;28;20107;-67
2022/08/27 03:14:15;;;;;;;2.80;1.40;;;;;;;;;;5089776;28;20413;-67
2022/08/27 03:16:41;;;;;;;3.93;2.40;;;;;;;;;;5093411;28;20471;-67
2022/08/27 03:19:08;;;;;;;2.87;2.30;;;;;;;;;;5102481;28;20169;-67
2022/08/27 03:21:35;;;;;;;4.03;1.00;;;;;;;;;;5113156;28;20027;-67
2022/08/27 03:24:03;;;;;;;2.70;1.73;;;;;;;;;;5091969;28;20035;-67
2022/08/27 03:26:30;;;;;;;2.60;1.90;;;;;;;;;;5090577;28;20463;-68
2022/08/27 03:28:58;;;;;;;3.70;2.10;;;;;;;;;;5089829;28;20023;-68
2022/08/27 03:31:25;;;;;;;3.20;1.73;;;;;;;;;;5087460;28;20027;-68
2022/08/27 03:33:53;;;;;;;3.43;2.13;;;;;;;;;;5087781;28;20837;-68
2022/08/27 03:36:20;;;;;;;2.23;1.70;;;;;;;;;;5088717;28;20094;-68
2022/08/27 03:38:47;;;;;;;2.63;1.60;;;;;;;;;;5092620;28;20113;-68
2022/08/27 03:41:14;;;;;;;3.10;2.00;;;;;;;;;;5100244;28;20024;-68
2022/08/27 03:43:41;;;;;;;3.73;2.17;;;;;;;;;;5092232;28;20020;-68
2022/08/27 03:46:08;;;;;;;4.60;1.73;;;;;;;;;;5105234;28;20035;-68
2022/08/27 03:48:35;;;;;;;1.37;1.00;;;;;;;;;;5106686;28;20035;-68
2022/08/27 03:51:06;;;;;;;2.13;1.47;;;;;;;;;;5107435;28;20043;-68
2022/08/27 03:53:33;;;;;;;2.60;1.33;;;;;;;;;;5096658;28;20028;-68
2022/08/27 03:56:00;;;;;;;3.00;1.67;;;;;;;;;;5087952;28;20107;-69
2022/08/27 03:58:27;;;;;;;2.83;1.93;;;;;;;;;;5088036;28;20039;-68
2022/08/27 04:00:54;;;;;;;3.00;1.97;;;;;;;;;;5107685;28;20458;-68
2022/08/27 04:03:21;;;;;;;1.97;1.40;;;;;;;;;;5105352;28;20023;-68
2022/08/27 04:05:52;;;;;;;12.53;3.03;;;;;;;;;;5098863;28;20023;-68
2022/08/27 04:08:22;;;;;;;10.33;2.93;;;;;;;;;;5097022;28;20067;-68
2022/08/27 04:10:50;;;;;;;3.03;2.50;;;;;;;;;;5090798;28;20024;-68
2022/08/27 04:13:17;;;;;;;2.83;1.97;;;;;;;;;;5086544;28;20067;-67
2022/08/27 04:15:44;;;;;;;2.43;1.60;;;;;;;;;;5087350;28;20020;-68
2022/08/27 04:18:12;;;;;;;4.80;2.73;;;;;;;;;;5093105;28;20278;-67
2022/08/27 04:20:39;;;;;;;2.63;1.93;;;;;;;;;;5107757;28;20016;-67
2022/08/27 04:23:05;;;;;;;12.63;1.73;;;;;;;;;;5097865;28;20062;-67
2022/08/27 04:25:33;;;;;;;3.53;1.63;;;;;;;;;;5110313;28;20059;-68
2022/08/27 04:28:00;;;;;;;4.13;2.87;;;;;;;;;;5108160;28;20039;-67
2022/08/27 04:30:27;;;;;;;3.20;2.00;;;;;;;;;;5093992;28;20016;-67
2022/08/27 04:32:53;;;;;;;2.80;1.77;;;;;;;;;;5076375;28;20024;-67
2022/08/27 04:35:20;;;;;;;6.20;1.90;;;;;;;;;;5091137;28;20111;-68
2022/08/27 04:37:47;;;;;;;3.37;2.13;;;;;;;;;;5091385;28;20024;-67
2022/08/27 04:40:14;;;;;;;3.80;1.90;;;;;;;;;;5090836;28;20016;-68
2022/08/27 04:42:41;;;;;;;2.33;1.57;;;;;;;;;;5091005;28;20020;-68
2022/08/27 04:45:08;;;;;;;2.60;1.77;;;;;;;;;;5096165;28;20103;-67
2022/08/27 04:47:35;;;;;;;4.57;2.13;;;;;;;;;;5096828;28;20027;-68
2022/08/27 04:50:02;;;;;;;9.47;2.13;;;;;;;;;;5116698;28;20076;-67
2022/08/27 04:52:28;;;;;;;3.00;2.30;;;;;;;;;;5116584;28;20016;-67
2022/08/27 04:54:55;;;;;;;3.33;1.93;;;;;;;;;;5116453;28;20094;-67
2022/08/27 04:57:22;;;;;;;3.43;1.50;;;;;;;;;;5111223;28;20024;-67
2022/08/27 04:59:49;;;;;;;2.63;1.57;;;;;;;;;;5108413;28;20083;-67
2022/08/27 05:02:16;;;;;;;2.47;1.87;;;;;;;;;;5072429;28;20442;-67
2022/08/27 05:04:43;;;;;;;5.87;1.47;;;;;;;;;;5090746;28;20032;-67
2022/08/27 05:07:10;;;;;;;1.87;1.47;;;;;;;;;;5095074;28;20020;-67
2022/08/27 05:09:37;;;;;;;4.37;1.50;;;;;;;;;;5096062;28;20426;-67
2022/08/27 05:12:04;;;;;;;2.10;1.33;;;;;;;;;;5081416;28;20424;-67
2022/08/27 05:14:31;;;;;;;1.63;1.33;;;;;;;;;;5116217;28;20027;-67
2022/08/27 05:16:59;;;;;;;1.37;0.83;;;;;;;;;;5116014;28;20462;-67
2022/08/27 05:19:25;;;;;;;3.57;1.33;;;;;;;;;;5111397;28;20020;-67
2022/08/27 05:21:53;;;;;;;1.43;0.97;;;;;;;;;;5092377;28;20063;-67
2022/08/27 05:24:20;;;;;;;1.67;1.00;;;;;;;;;;5105121;28;20077;-67
2022/08/27 05:26:47;;;;;;;1.33;1.00;;;;;;;;;;5089941;28;20024;-67
2022/08/27 05:29:14;;;;;;;1.83;1.43;;;;;;;;;;5093890;28;20051;-67
2022/08/27 05:31:41;;;;;;;2.60;1.63;;;;;;;;;;5095597;28;20050;-67
2022/08/27 05:34:08;;;;;;;2.07;1.53;;;;;;;;;;5095588;28;20020;-67
2022/08/27 05:36:35;;;;;;;2.10;1.53;;;;;;;;;;5100075;28;20020;-67
2022/08/27 05:39:03;;;;;;;3.60;1.70;;;;;;;;;;5115664;28;20020;-66
2022/08/27 05:41:31;;;;;;;4.03;1.20;;;;;;;;;;5104303;28;20035;-67
2022/08/27 05:43:59;;;;;;;2.43;1.53;;;;;;;;;;5108227;28;20491;-66
2022/08/27 05:46:26;;;;;;;1.53;1.30;;;;;;;;;;5109442;28;20386;-66
2022/08/27 05:48:55;;;;;;;2.03;1.47;;;;;;;;;;5091046;28;20471;-65
2022/08/27 05:51:23;;;;;;;1.40;1.07;;;;;;;;;;5112822;28;20073;-65
2022/08/27 05:53:50;;;;;;;2.63;1.40;;;;;;;;;;5097173;28;20039;-66
2022/08/27 05:56:21;;;;;;;3.17;1.70;;;;;;;;;;5094339;28;20053;-66
2022/08/27 06:01:39;;;;;;;1.30;1.10;;;;;;;;;;5094614;28;20042;-66
2022/08/27 06:04:07;;;;;;;1.30;1.03;;;;;;;;;;5093972;28;20020;-66
2022/08/27 06:06:34;;;;;;;1.37;0.80;;;;;;;;;;5109026;28;20030;-66
2022/08/27 06:09:01;;;;;;;1.23;0.80;;;;;;;;;;5108950;28;20796;-66
2022/08/27 06:11:28;;;;;;;1.80;1.43;;;;;;;;;;5108954;28;20381;-66
2022/08/27 06:13:56;;;;;;;2.00;1.37;;;;;;;;;;5112617;28;20043;-66
2022/08/27 06:16:22;;;;;;;1.03;0.87;;;;;;;;;;5105590;28;20128;-66
2022/08/27 06:18:49;;;;;;;3.70;1.93;;;;;;;;;;5093912;28;20027;-67
2022/08/27 06:21:18;;;;;;;1.47;1.00;;;;;;;;;;5094016;28;20031;-66
2022/08/27 06:23:45;;;;;;;1.83;1.40;;;;;;;;;;5093610;28;20488;-66
2022/08/27 06:26:13;;;;;;;3.60;1.23;;;;;;;;;;5089555;28;20470;-67
2022/08/27 06:28:40;;;;;;;1.43;0.80;;;;;;;;;;5100900;28;21027;-66
2022/08/27 06:31:08;;;;;;;2.47;1.43;;;;;;;;;;5108507;28;20045;-66
2022/08/27 06:33:35;;;;;;;1.70;1.10;;;;;;;;;;5108855;28;20027;-67
2022/08/27 06:36:02;;;;;;;2.80;1.17;;;;;;;;;;5111767;28;20463;-66
2022/08/27 06:38:29;;;;;;;1.30;0.90;;;;;;;;;;5114007;28;20016;-66
2022/08/27 06:40:57;;;;;;;0.73;0.60;;;;;;;;;;5099971;28;20028;-66
2022/08/27 06:43:24;;;;;;;1.03;0.90;;;;;;;;;;5093648;28;20024;-66
2022/08/27 06:45:50;;;;;;;1.67;1.27;;;;;;;;;;5093501;28;20459;-67
2022/08/27 06:48:17;;;;;;;2.03;1.17;;;;;;;;;;5089580;28;20032;-66
2022/08/27 06:50:44;;;;;;;1.37;0.90;;;;;;;;;;5087977;28;20020;-67
2022/08/27 06:53:11;;;;;;;1.07;0.90;;;;;;;;;;5103295;28;20489;-66
2022/08/27 06:55:45;;;;;;;2.20;1.40;;;;;;;;;;5107814;28;20545;-66
2022/08/27 06:58:11;;;;;;;0.77;0.67;;;;;;;;;;5110470;28;20027;-67
2022/08/27 07:00:38;;;;;;;6.83;1.17;;;;;;;;;;5113540;28;20019;-66
2022/08/27 07:03:05;;;;;;;1.30;1.10;;;;;;;;;;5113624;28;20023;-66
2022/08/27 07:05:33;;;;;;;0.60;0.60;;;;;;;;;;5111475;28;20027;-66
2022/08/27 07:08:00;;;;;;;1.03;0.90;;;;;;;;;;5113375;28;20027;-66
2022/08/27 07:10:27;;;;;;;1.00;0.80;;;;;;;;;;5109996;28;20020;-66
2022/08/27 07:12:53;;;;;;;0.63;0.60;;;;;;;;;;5107763;28;20026;-66
2022/08/27 07:15:21;;;;;;;0.93;0.70;;;;;;;;;;5107534;28;20402;-67
2022/08/27 07:17:47;;;;;;;1.30;0.97;;;;;;;;;;5091463;28;20023;-66
2022/08/27 07:20:15;;;;;;;1.50;1.10;;;;;;;;;;5089911;28;20109;-66
2022/08/27 07:22:42;;;;;;;7.07;1.50;;;;;;;;;;5094159;28;20028;-66
2022/08/27 07:25:11;;;;;;;1.20;0.97;;;;;;;;;;5113149;28;20048;-66
2022/08/27 07:27:38;;;;;;;2.83;1.33;;;;;;;;;;5112929;28;20031;-67
2022/08/27 07:30:07;;;;;;;1.83;1.37;;;;;;;;;;5095499;28;20493;-66
2022/08/27 07:32:34;;;;;;;2.07;1.03;;;;;;;;;;5089855;28;20062;-66
2022/08/27 07:35:00;;;;;;;1.10;0.87;;;;;;;;;;5087126;28;20016;-66
2022/08/27 07:37:27;;;;;;;0.80;0.80;;;;;;;;;;5087072;28;20056;-66
2022/08/27 07:39:53;;;;;;;0.47;0.47;;;;;;;;;;5086837;28;20433;-66
2022/08/27 07:45:05;;;;;;;0.50;0.50;;;;;;;;;;5112812;28;20034;-66
2022/08/27 07:47:32;;;;;;;0.30;0.30;;;;;;;;;;5112722;28;20031;-66
2022/08/27 07:49:59;;;;;;;0.43;0.30;;;;;;;;;;5112717;28;20023;-67
2022/08/27 07:52:26;;;;;;;1.10;0.77;;;;;;;;;;5110592;28;20416;-66
2022/08/27 07:54:53;;;;;;;0.37;0.37;;;;;;;;;;5089532;28;20028;-66
2022/08/27 07:57:19;;;;;;;0.40;0.33;;;;;;;;;;5086806;28;20020;-66
2022/08/27 07:59:47;;;;;;;0.77;0.60;;;;;;;;;;5086386;28;20039;-66
2022/08/27 08:02:14;;;;;;;2.67;0.60;;;;;;;;;;5086827;28;20494;-66
2022/08/27 08:04:40;;;;;;;0.83;0.40;;;;;;;;;;5093230;28;20460;-66
2022/08/27 08:07:07;;;;;;;0.87;0.60;;;;;;;;;;5116791;28;20031;-66
2022/08/27 08:09:34;;;;;;;0.30;0.30;;;;;;;;;;5116660;28;20106;-66
2022/08/27 08:12:01;;;;;;;0.70;0.50;;;;;;;;;;5116939;28;20020;-66
2022/08/27 08:14:27;;;;;;;0.20;0.20;;;;;;;;;;5116594;28;20075;-66
2022/08/27 08:16:54;;;;;;;0.50;0.30;;;;;;;;;;5105608;28;20169;-66
2022/08/27 08:19:21;;;;;;;1.30;0.57;;;;;;;;;;5090672;28;20039;-66
2022/08/27 08:21:47;;;;;;;3.00;0.90;;;;;;;;;;5090800;28;20028;-66
2022/08/27 08:24:14;;;;;;;1.17;0.73;;;;;;;;;;5090715;28;20032;-67
2022/08/27 08:26:41;;;;;;;0.80;0.57;;;;;;;;;;5092893;28;20360;-66
2022/08/27 08:29:07;;;;;;;0.33;0.20;;;;;;;;;;5096050;28;20029;-66
2022/08/27 08:31:34;;;;;;;0.30;0.20;;;;;;;;;;5095959;28;20158;-66
2022/08/27 08:34:01;;;;;;;1.63;0.50;;;;;;;;;;5095974;28;20016;-66
2022/08/27 08:36:28;;;;;;;2.20;0.97;;;;;;;;;;5105221;28;20378;-66
2022/08/27 08:38:54;;;;;;;0.40;0.30;;;;;;;;;;5114684;28;20032;-66
2022/08/27 08:41:42;;;;;;;0.50;0.40;;;;;;;;;;5110784;28;20026;-66
2022/08/27 08:44:14;;;;;;;0.37;0.30;;;;;;;;;;5095162;28;20035;-66
2022/08/27 08:46:46;;;;;;;0.20;0.20;;;;;;;;;;5089850;28;20032;-67
2022/08/27 08:49:23;;;;;;;0.23;0.03;;;;;;;;;;5091885;28;20032;-66
2022/08/27 08:51:53;;;;;;;1.53;0.33;;;;;;;;;;5095798;28;20103;-66
2022/08/27 08:54:21;;;;;;;0.10;0.10;;;;;;;;;;5111423;28;20020;-66
2022/08/27 08:57:01;;;;;;;0.10;0.10;;;;;;;;;;5115916;28;20161;-66
2022/08/27 08:59:32;;;;;;;0.10;0.10;;;;;;;;;;5115905;28;20074;-66
2022/08/27 09:01:59;;;;;;;0.57;0.53;;;;;;;;;;5113059;28;20164;-66
2022/08/27 09:04:27;;;;;;;1.80;0.90;;;;;;;;;;5110041;28;20036;-66
2022/08/27 09:06:57;;;;;;;0.37;0.27;;;;;;;;;;5090358;28;20024;-66
2022/08/27 09:09:29;;;;;;;2.80;1.13;;;;;;;;;;5089965;28;20146;-67
2022/08/27 09:11:58;;;;;;;0.77;0.43;;;;;;;;;;5092295;28;20099;-66
2022/08/27 09:14:36;;;;;;;0.33;0.13;;;;;;;;;;5095000;28;20036;-66
2022/08/27 09:17:04;;;;;;;0.17;0.17;;;;;;;;;;5095295;28;20102;-66
2022/08/27 09:19:31;;;;;;;0.53;0.33;;;;;;;;;;5115690;28;20035;-66
2022/08/27 09:22:27;;;;;;;0.40;0.23;;;;;;;;;;5115279;28;20374;-66
2022/08/27 09:25:07;;;;;;;1.00;0.70;;;;;;;;;;5089953;28;20031;-66
2022/08/27 09:27:40;;;;;;;0.23;0.20;;;;;;;;;;5109821;28;20479;-66
2022/08/27 09:30:11;;;;;;;1.57;0.63;;;;;;;;;;5100137;28;20536;-66
2022/08/27 09:32:38;;;;;;;0.97;0.57;;;;;;;;;;5089347;28;20020;-66
2022/08/27 09:35:07;;;;;;;0.40;0.30;;;;;;;;;;5093728;28;20024;-66
2022/08/27 09:37:45;;;;;;;0.43;0.43;;;;;;;;;;5094775;28;20020;-66
2022/08/27 09:40:16;;;;;;;0.43;0.40;;;;;;;;;;5094613;28;20051;-66
2022/08/27 09:42:43;;;;;;;0.30;0.23;;;;;;;;;;5106291;28;20030;-66
2022/08/27 09:45:15;;;;;;;0.53;0.40;;;;;;;;;;5115053;28;20074;-66
2022/08/27 09:47:46;;;;;;;2.97;1.00;;;;;;;;;;5109437;28;20485;-66
2022/08/27 09:50:15;;;;;;;1.10;0.77;;;;;;;;;;5109593;28;20027;-66
2022/08/27 09:52:58;;;;;;;1.90;0.70;;;;;;;;;;5109382;28;20027;-66
2022/08/27 09:55:43;;;;;;;1.83;0.90;;;;;;;;;;5089929;28;20039;-66
2022/08/27 09:58:17;;;;;;;0.82;0.70;;;;;;;;;;5094417;28;20020;-66
2022/08/27 10:00:44;;;;;;;0.60;0.50;;;;;;;;;;5094375;28;20012;-66
2022/08/27 10:03:11;;;;;;;0.13;0.13;;;;;;;;;;5094513;28;20462;-66
2022/08/27 10:05:52;;;;;;;0.40;0.30;;;;;;;;;;5114728;28;20497;-65
2022/08/27 10:08:28;;;;;;;0.37;0.30;;;;;;;;;;5113088;28;20028;-66
2022/08/27 10:10:57;;;;;;;0.23;0.20;;;;;;;;;;5109023;28;20028;-66
2022/08/27 10:13:26;;;;;;;0.50;0.30;;;;;;;;;;5105735;28;20024;-66
2022/08/27 10:16:00;;;;;;;0.90;0.53;;;;;;;;;;5105946;28;20023;-66
2022/08/27 10:18:37;;;;;;;0.27;0.27;;;;;;;;;;5110467;28;20184;-65
2022/08/27 10:21:10;;;;;;;0.20;0.20;;;;;;;;;;5114491;28;20623;-66
2022/08/27 10:23:40;;;;;;;0.10;0.10;;;;;;;;;;5114209;28;20023;-66
2022/08/27 10:26:19;;;;;;;1.63;0.73;;;;;;;;;;5095633;28;20177;-66
2022/08/27 10:28:57;;;;;;;2.13;0.60;;;;;;;;;;5093631;28;20032;-66
2022/08/27 10:31:31;;;;;;;0.20;0.20;;;;;;;;;;5090412;28;20050;-65
2022/08/27 10:34:16;;;;;;;0.57;0.33;;;;;;;;;;5087861;28;20027;-66
2022/08/27 10:36:55;;;;;;;1.40;0.50;;;;;;;;;;5093222;28;20252;-66
2022/08/27 10:39:51;;;;;;;4.07;0.73;;;;;;;;;;5108407;28;20020;-66
2022/08/27 10:42:27;;;;;;;0.20;0.20;;;;;;;;;;5091751;28;20098;-66
2022/08/27 10:44:54;;;;;;;0.50;0.30;;;;;;;;;;5112353;28;20016;-66
2022/08/27 10:47:32;;;;;;;0.27;0.27;;;;;;;;;;5093317;28;20031;-65
2022/08/27 10:50:10;;;;;;;0.30;0.30;;;;;;;;;;5093118;28;20028;-66
2022/08/27 10:52:43;;;;;;;1.10;0.60;;;;;;;;;;5092608;28;20059;-66
2022/08/27 10:55:36;;;;;;;3.80;0.67;;;;;;;;;;5090623;28;20031;-66
2022/08/27 10:58:11;;;;;;;2.10;1.03;;;;;;;;;;5103811;28;20493;-66
2022/08/27 11:00:43;;;;;;;1.50;0.50;;;;;;;;;;5108380;28;20110;-66
2022/08/27 11:03:11;;;;;;;0.43;0.37;;;;;;;;;;5109845;28;20019;-66
2022/08/27 11:05:45;;;;;;;0.40;0.40;;;;;;;;;;5113207;28;20042;-65
2022/08/27 11:08:21;;;;;;;0.40;0.32;;;;;;;;;;5101823;28;20044;-65
2022/08/27 11:10:51;;;;;;;0.77;0.60;;;;;;;;;;5113510;28;20102;-66
2022/08/27 11:13:23;;;;;;;0.47;0.47;;;;;;;;;;5113299;28;20055;-65
2022/08/27 11:15:50;;;;;;;1.70;0.57;;;;;;;;;;5110504;28;20030;-66
2022/08/27 11:18:18;;;;;;;0.70;0.50;;;;;;;;;;5105463;28;20085;-66
2022/08/27 11:21:02;;;;;;;0.37;0.30;;;;;;;;;;5086763;28;20035;-65
2022/08/27 11:23:35;;;;;;;0.45;0.40;;;;;;;;;;5087443;28;20125;-66
2022/08/27 11:26:04;;;;;;;0.20;0.20;;;;;;;;;;5090410;28;20048;-66
2022/08/27 11:28:43;;;;;;;0.13;0.10;;;;;;;;;;5092638;28;20035;-65
2022/08/27 11:31:12;;;;;;;0.70;0.50;;;;;;;;;;5093788;28;20026;-66
2022/08/27 11:33:42;;;;;;;0.20;0.20;;;;;;;;;;5092662;28;20036;-66
2022/08/27 11:36:15;;;;;;;0.23;0.20;;;;;;;;;;5092739;28;20024;-65
2022/08/27 11:38:41;;;;;;;2.57;0.50;;;;;;;;;;5088355;28;20024;-66
2022/08/27 11:41:14;;;;;;;0.30;0.30;;;;;;;;;;5086511;28;20108;-65
2022/08/27 11:43:43;;;;;;;0.30;0.27;;;;;;;;;;5096020;28;20028;-66
2022/08/27 11:46:11;;;;;;;0.57;0.40;;;;;;;;;;5107364;28;20026;-66
2022/08/27 11:48:42;;;;;;;0.50;0.40;;;;;;;;;;5110732;28;20032;-65
2022/08/27 11:51:09;;;;;;;0.17;0.17;;;;;;;;;;5112770;28;20031;-66
2022/08/27 11:53:37;;;;;;;0.23;0.20;;;;;;;;;;5112799;28;20027;-65
2022/08/27 11:56:21;;;;;;;0.80;0.30;;;;;;;;;;5101149;28;20355;-65
2022/08/27 11:58:47;;;;;;;0.30;0.20;;;;;;;;;;5074645;28;20017;-65
2022/08/27 12:01:15;;;;;;;0.27;0.27;;;;;;;;;;5087668;28;20034;-65
2022/08/27 12:03:42;;;;;;;0.23;0.23;;;;;;;;;;5086749;28;20294;-66
2022/08/27 12:06:21;;;;;;;0.13;0.13;;;;;;;;;;5086868;28;20048;-65
2022/08/27 12:08:48;;;;;;;2.70;0.83;;;;;;;;;;5101351;28;20466;-66
2022/08/27 12:11:28;;;;;;;0.10;0.10;;;;;;;;;;5111426;28;20469;-65
2022/08/27 12:14:12;;;;;;;0.33;0.30;;;;;;;;;;5112608;28;20032;-65
2022/08/27 12:16:39;;;;;;;2.77;0.40;;;;;;;;;;5112300;28;20480;-66
2022/08/27 12:19:05;;;;;;;0.30;0.30;;;;;;;;;;5111499;28;20020;-66
2022/08/27 12:21:41;;;;;;;0.47;0.47;;;;;;;;;;5092208;28;20024;-65
2022/08/27 12:24:08;;;;;;;1.17;0.63;;;;;;;;;;5086707;28;20579;-65
2022/08/27 12:26:36;;;;;;;0.60;0.30;;;;;;;;;;5086722;28;20024;-65
2022/08/27 12:29:23;;;;;;;0.37;0.30;;;;;;;;;;5086699;28;20036;-65
2022/08/27 12:31:55;;;;;;;0.47;0.30;;;;;;;;;;5101332;28;20032;-65
2022/08/27 12:34:23;;;;;;;0.93;0.30;;;;;;;;;;5112397;28;20020;-65
2022/08/27 12:36:51;;;;;;;0.27;0.27;;;;;;;;;;5112509;28;20016;-65
2022/08/27 12:39:19;;;;;;;0.33;0.20;;;;;;;;;;5112349;28;20107;-66
2022/08/27 12:41:48;;;;;;;1.00;0.60;;;;;;;;;;5097756;28;20028;-65
2022/08/27 12:44:28;;;;;;;0.30;0.20;;;;;;;;;;5090883;28;20368;-65
2022/08/27 12:47:04;;;;;;;0.30;0.30;;;;;;;;;;5086076;28;20344;-66
2022/08/27 12:49:30;;;;;;;;;;;;;;;;;;5086889;28;20020;-66
2022/08/27 12:51:57;;;;;;;0.50;0.47;;;;;;;;;;5088445;28;19979;-65
2022/08/27 12:54:50;;;;;;;0.73;0.70;;;;;;;;;;5110368;28;20024;-65
2022/08/27 12:57:19;;;;;;;0.20;0.20;;;;;;;;;;5116058;28;20343;-65
2022/08/27 12:59:46;;;;;;;0.27;0.27;;;;;;;;;;5114074;28;20100;-65
2022/08/27 13:02:22;;;;;;;0.30;0.30;;;;;;;;;;5115734;28;20027;-65
2022/08/27 13:04:49;;;;;;;0.80;0.60;;;;;;;;;;5115615;28;20039;-65
2022/08/27 13:07:31;;;;;;;2.00;1.07;;;;;;;;;;5113001;28;20038;-65
2022/08/27 13:10:08;;;;;;;1.00;0.80;;;;;;;;;;5107840;28;20218;-65
2022/08/27 13:12:35;;;;;;;6.33;1.43;;;;;;;;;;5089504;28;20378;-65
2022/08/27 13:15:09;;;;;;;0.77;0.60;;;;;;;;;;5089903;28;20077;-65
2022/08/27 13:17:38;;;;;;;0.30;0.28;;;;;;;;;;5092763;28;20024;-65
2022/08/27 13:20:13;;;;;;;1.20;0.57;;;;;;;;;;5095223;28;20099;-65
2022/08/27 13:22:42;;;;;;;1.20;0.70;;;;;;;;;;5102811;28;20015;-65
2022/08/27 13:25:22;;;;;;;0.70;0.40;;;;;;;;;;5115457;28;20023;-65
2022/08/27 13:28:15;;;;;;;0.97;0.77;;;;;;;;;;5115499;28;20457;-64
2022/08/27 13:30:44;;;;;;;0.30;0.20;;;;;;;;;;5105405;28;20116;-66
2022/08/27 13:33:13;;;;;;;0.50;0.50;;;;;;;;;;5109924;28;20026;-65
2022/08/27 13:35:42;;;;;;;1.43;1.03;;;;;;;;;;5095491;28;20532;-66
2022/08/27 13:38:09;;;;;;;0.87;0.60;;;;;;;;;;5089171;28;20016;-65
2022/08/27 13:40:51;;;;;;;1.30;0.90;;;;;;;;;;5093945;28;20455;-65
2022/08/27 13:43:18;;;;;;;0.30;0.30;;;;;;;;;;5094852;28;20028;-65
2022/08/27 13:45:48;;;;;;;0.57;0.40;;;;;;;;;;5094300;28;20016;-66
2022/08/27 13:48:17;;;;;;;0.87;0.67;;;;;;;;;;5112945;28;20035;-66
2022/08/27 13:50:54;;;;;;;2.50;1.00;;;;;;;;;;5114913;28;20020;-66
2022/08/27 13:56:07;;;;;;;11.50;1.00;;;;;;;;;;5109623;28;20119;-66
2022/08/27 13:58:35;;;;;;;3.60;0.80;;;;;;;;;;5102983;28;20115;-66
2022/08/27 14:01:09;;;;;;;1.30;1.00;;;;;;;;;;5089097;28;20099;-66
2022/08/27 14:03:37;;;;;;;1.75;1.02;;;;;;;;;;5093825;28;20047;-66
2022/08/27 14:06:04;;;;;;;2.83;1.13;;;;;;;;;;5094095;28;20026;-66
2022/08/27 14:08:34;;;;;;;1.87;0.90;;;;;;;;;;5093718;28;20032;-66
2022/08/27 14:11:01;;;;;;;2.73;1.17;;;;;;;;;;5104228;28;20020;-66
2022/08/27 14:13:30;;;;;;;1.40;0.97;;;;;;;;;;5107842;28;20047;-66
2022/08/27 14:15:58;;;;;;;0.97;0.70;;;;;;;;;;5109029;28;20522;-66
2022/08/27 14:18:27;;;;;;;0.73;0.60;;;;;;;;;;5108976;28;20020;-66
2022/08/27 14:20:54;;;;;;;1.27;0.80;;;;;;;;;;5108989;28;20397;-66
2022/08/27 14:23:22;;;;;;;1.43;0.63;;;;;;;;;;5101370;28;20024;-66
2022/08/27 14:25:50;;;;;;;0.87;0.63;;;;;;;;;;5094084;28;20024;-67
2022/08/27 14:28:16;;;;;;;1.20;0.90;;;;;;;;;;5101394;28;20036;-67
2022/08/27 14:30:44;;;;;;;1.67;0.87;;;;;;;;;;5113990;28;20020;-67
2022/08/27 14:33:11;;;;;;;0.40;0.40;;;;;;;;;;5114228;28;21369;-67
2022/08/27 14:35:39;;;;;;;1.00;0.80;;;;;;;;;;5113867;28;20730;-66
2022/08/27 14:38:17;;;;;;;1.57;1.00;;;;;;;;;;5102566;28;20024;-67
2022/08/27 14:40:44;;;;;;;1.13;0.70;;;;;;;;;;5088000;28;20036;-66
2022/08/27 14:43:11;;;;;;;1.23;0.87;;;;;;;;;;5088313;28;20031;-67
2022/08/27 14:45:39;;;;;;;1.70;0.90;;;;;;;;;;5088126;28;20088;-67
2022/08/27 14:48:08;;;;;;;1.13;0.63;;;;;;;;;;5093189;28;20107;-66
2022/08/27 14:50:34;;;;;;;1.53;1.10;;;;;;;;;;5102078;28;20412;-66
2022/08/27 14:53:01;;;;;;;1.20;0.90;;;;;;;;;;5113609;28;20453;-67
2022/08/27 14:55:30;;;;;;;1.30;0.90;;;;;;;;;;5113627;28;20471;-66
2022/08/27 14:57:57;;;;;;;1.30;0.90;;;;;;;;;;5113102;28;20127;-67
2022/08/27 15:00:24;;;;;;;1.13;0.70;;;;;;;;;;5108056;28;20095;-67
2022/08/27 15:02:51;;;;;;;0.87;0.73;;;;;;;;;;5097886;28;20081;-67
2022/08/27 15:05:19;;;;;;;1.77;0.63;;;;;;;;;;5087246;28;20106;-67